الصفحة الرئيسية
METAR-TAF:

METAR-TAF

مطار :

Nukus, أوزبكستان

دائرة عرض: 42-28-48N, خط طول: 059-37-48E, ارتفاع: 77 متر

مراقبة الطقس الحالي

تاريخ ووقت الإصدار 12 دقيقة قبل الساعة 09:30UTC
ريح 10 عقدة من الشمال/الشمال الشرقي
درجة الحرارة 4°درجة مئوية
الرطوبة 23%
ضغط 1032 hPa
الرؤية 10 كم أو أكثر
الغيوم لا تقل 1500 م ولا وجود لمزنة ركامية السحاب الأسود

METAR: UTNN 270930Z 02010KT CAVOK 04/M15 Q1032 R33/CLRD60 NOSIG

زمن: 14:42 (09:42 UTC)

توقعات

تاريخ ووقت الإصدار 4ساعات و 42 دقيقة قبل الساعة 05:00UTC
التوقعات صالحة من27 الساعة 06 UTC إلى 28 الساعة 06 UTC
ريح 12 عقدة من الشمال/الشمال الشرقي تتزايد حتى 22 عقدة
الرؤية 10 كم أو أكثر
الغيوم لا تقل 1500 م ولا وجود لمزنة ركامية السحاب الأسود

TAF: UTNN 270500Z 2706/2806 02012G22KT CAVOK

أرصاد الطقس والتوقعات من أكثر من 4000 مطار (تقارير الطقس للمطار METAR والتنبؤ بالطقس بالمطارTAF).

المحطات المتاحة هي النقط الصفراء والحمراء على الخريطة.

حرك المؤشر فوق النقطة لمعرفة اسم المحطة.

ثم انقر لمعرفة أرصاد وتوقعات الطقس.

لتغيير الخارطة: اضغط على الأزرار الخضراء مع رمز الصليب الأسود للتكبير. على الزر الأخضر مع شرطة للتصغير، أو على الأسهم الخضراء للخرائط المجاورة.


METAR-TAF: